createdAt,value
2022-12-06T00:03:11.059Z,48.07
2022-12-06T00:08:13.366Z,48.44
2022-12-06T00:13:15.402Z,48.23
2022-12-06T00:18:17.461Z,48.82
2022-12-06T00:23:19.579Z,48.39
2022-12-06T00:28:21.676Z,49.23
2022-12-06T00:33:23.695Z,49.02
2022-12-06T00:38:27.018Z,49.44
2022-12-06T00:43:29.587Z,49.17
2022-12-06T00:48:31.598Z,49.03
2022-12-06T00:53:33.733Z,48.85
2022-12-06T00:58:35.774Z,48.73
2022-12-06T01:03:38.499Z,49.09
2022-12-06T01:08:42.291Z,49.02
2022-12-06T01:13:44.705Z,49.12
2022-12-06T01:18:47.471Z,48.77
2022-12-06T01:23:50.412Z,49.23
2022-12-06T01:28:52.737Z,49.36
2022-12-06T01:33:54.909Z,49.12
2022-12-06T01:38:58.857Z,49.67
2022-12-06T01:44:00.969Z,50.10
2022-12-06T01:49:19.077Z,49.74
2022-12-06T01:54:22.111Z,49.96
2022-12-06T01:59:26.006Z,50.11
2022-12-06T02:04:30.878Z,50.12
2022-12-06T02:09:33.937Z,49.29
2022-12-06T02:14:36.038Z,50.28
2022-12-06T02:19:58.327Z,49.53
2022-12-06T02:25:24.728Z,50.42
2022-12-06T02:30:48.755Z,50.46
2022-12-06T02:36:11.829Z,49.55
2022-12-06T02:41:22.473Z,50.60
2022-12-06T02:46:30.729Z,49.45
2022-12-06T02:51:35.078Z,49.97
2022-12-06T02:56:37.182Z,50.07
2022-12-06T03:01:49.705Z,50.52
2022-12-06T03:07:03.396Z,50.12
2022-12-06T03:12:05.823Z,49.58
2022-12-06T03:17:19.519Z,49.82
2022-12-06T03:22:23.973Z,49.45
2022-12-06T03:27:30.752Z,49.80
2022-12-06T03:32:34.903Z,50.15
2022-12-06T03:37:40.925Z,50.04
2022-12-06T03:42:43.122Z,50.09
2022-12-06T03:48:00.769Z,49.83
2022-12-06T03:53:04.251Z,49.97
2022-12-06T03:58:06.267Z,49.72
2022-12-06T04:03:08.364Z,50.42
2022-12-06T04:08:10.463Z,50.00
2022-12-06T04:13:18.137Z,50.47
2022-12-06T04:18:22.123Z,50.40
2022-12-06T04:23:24.135Z,50.30
2022-12-06T04:28:45.279Z,51.32
2022-12-06T04:34:06.104Z,50.86
2022-12-06T04:39:08.106Z,51.40
2022-12-06T04:44:10.468Z,51.42
2022-12-06T04:49:12.442Z,51.34
2022-12-06T04:54:14.477Z,50.94
2022-12-06T04:59:16.786Z,50.95
2022-12-06T05:04:20.110Z,51.49
2022-12-06T05:09:22.211Z,51.41
2022-12-06T05:14:24.306Z,50.94
2022-12-06T05:19:27.391Z,50.49
2022-12-06T05:24:29.504Z,51.40
2022-12-06T05:29:31.602Z,51.00
2022-12-06T05:34:34.612Z,51.45
2022-12-06T05:39:36.780Z,50.50
2022-12-06T05:44:38.755Z,51.15
2022-12-06T05:49:40.723Z,50.04
2022-12-06T05:54:42.787Z,50.49
2022-12-06T05:59:44.875Z,51.20
2022-12-06T06:04:46.982Z,50.98
2022-12-06T06:09:49.080Z,50.15
2022-12-06T06:14:51.189Z,50.25
2022-12-06T06:19:53.281Z,49.49
2022-12-06T06:24:55.399Z,49.06
2022-12-06T06:29:57.534Z,48.47
2022-12-06T06:35:00.071Z,48.11
2022-12-06T06:40:02.924Z,47.99
2022-12-06T06:45:06.682Z,47.90
2022-12-06T06:50:09.271Z,46.23
2022-12-06T06:55:11.465Z,44.85
2022-12-06T07:00:14.691Z,41.94
2022-12-06T07:05:16.835Z,41.96
2022-12-06T07:10:19.456Z,42.94
2022-12-06T07:15:21.714Z,44.51
2022-12-06T07:20:23.794Z,44.36
2022-12-06T07:25:25.857Z,44.76
2022-12-06T07:30:28.068Z,44.82
2022-12-06T07:35:55.656Z,45.07
2022-12-06T07:41:07.713Z,44.91
2022-12-06T07:46:12.872Z,44.69
2022-12-06T07:51:14.887Z,42.29
2022-12-06T07:56:16.870Z,39.18
2022-12-06T08:01:19.540Z,36.73
2022-12-06T08:06:21.882Z,36.00
2022-12-06T08:11:24.531Z,35.14
2022-12-06T08:16:26.743Z,33.62
2022-12-06T08:21:29.000Z,33.67
2022-12-06T08:26:31.168Z,32.80
2022-12-06T08:31:36.931Z,32.19
2022-12-06T08:36:40.499Z,30.78
2022-12-06T08:42:03.522Z,29.33
2022-12-06T08:47:05.612Z,28.84
2022-12-06T08:52:07.663Z,28.89
2022-12-06T08:57:09.478Z,35.43
2022-12-06T09:02:12.646Z,27.44
2022-12-06T09:07:15.162Z,26.78
2022-12-06T09:12:17.184Z,27.10
2022-12-06T09:17:19.031Z,33.01
2022-12-06T09:22:20.970Z,27.97
2022-12-06T09:27:22.910Z,28.03
2022-12-06T09:32:24.799Z,33.03
2022-12-06T09:37:27.046Z,27.66
2022-12-06T09:42:54.664Z,28.23
2022-12-06T09:48:16.524Z,28.64
2022-12-06T09:53:21.522Z,28.55
2022-12-06T09:58:29.307Z,28.30
2022-12-06T10:04:02.148Z,29.36
2022-12-06T10:09:25.557Z,28.91
2022-12-06T10:14:33.376Z,28.09
2022-12-06T10:20:10.711Z,30.34
2022-12-06T10:25:23.864Z,27.31
2022-12-06T10:30:26.414Z,26.89
2022-12-06T10:35:51.117Z,28.08
2022-12-06T10:41:13.326Z,27.87
2022-12-06T10:46:42.681Z,29.71
2022-12-06T10:52:02.678Z,28.31
2022-12-06T10:57:16.987Z,27.58
2022-12-06T11:02:31.364Z,27.60
2022-12-06T11:07:42.858Z,28.06
2022-12-06T11:12:45.652Z,27.85
2022-12-06T11:18:02.935Z,29.53
2022-12-06T11:23:30.286Z,29.34
2022-12-06T11:28:44.070Z,29.87
2022-12-06T11:33:46.565Z,29.87
2022-12-06T11:38:48.705Z,29.19
2022-12-06T11:43:52.557Z,29.38
2022-12-06T11:48:57.794Z,30.00
2022-12-06T11:54:05.777Z,29.84
2022-12-06T11:59:26.988Z,30.21
2022-12-06T12:04:43.418Z,29.84
2022-12-06T12:09:47.555Z,30.15
2022-12-06T12:14:58.548Z,30.63
2022-12-06T12:20:08.269Z,30.99
2022-12-06T12:25:27.726Z,32.35
2022-12-06T12:30:51.721Z,32.92
2022-12-06T12:35:55.163Z,34.04
2022-12-06T12:41:00.099Z,34.38
2022-12-06T12:46:15.753Z,35.41
2022-12-06T12:51:36.078Z,36.04
2022-12-06T12:56:38.388Z,36.48
2022-12-06T13:02:13.306Z,35.70
2022-12-06T13:07:15.275Z,36.38
2022-12-06T13:12:26.617Z,36.38
2022-12-06T13:17:32.979Z,36.63
2022-12-06T13:22:39.164Z,36.83
2022-12-06T13:27:44.923Z,37.48
2022-12-06T13:32:46.923Z,37.48
2022-12-06T13:37:57.254Z,37.56
2022-12-06T13:43:01.191Z,37.86
2022-12-06T13:48:03.230Z,37.60
2022-12-06T13:53:05.273Z,37.98
2022-12-06T13:58:07.184Z,38.33
2022-12-06T14:03:19.207Z,37.73
2022-12-06T14:08:22.421Z,38.09
2022-12-06T14:13:24.527Z,38.34
2022-12-06T14:18:28.747Z,38.88
2022-12-06T14:23:41.759Z,38.67
2022-12-06T14:28:46.010Z,38.91
2022-12-06T14:33:48.615Z,38.89
2022-12-06T14:38:53.001Z,39.36
2022-12-06T14:43:54.980Z,40.11
2022-12-06T14:49:20.297Z,39.79
2022-12-06T14:54:36.596Z,40.10
2022-12-06T15:00:13.937Z,40.62
2022-12-06T15:05:00.776Z,40.22
2022-12-06T15:10:30.197Z,40.65
2022-12-06T15:15:45.233Z,40.26
2022-12-06T15:20:48.743Z,40.11
2022-12-06T15:25:50.755Z,39.96
2022-12-06T15:30:53.427Z,39.92
2022-12-06T15:35:55.581Z,40.53
2022-12-06T15:40:57.755Z,40.39
2022-12-06T15:46:02.004Z,40.36
2022-12-06T15:51:08.009Z,41.37
2022-12-06T15:56:19.131Z,40.68
2022-12-06T16:01:49.430Z,40.90
2022-12-06T16:06:51.630Z,41.72
2022-12-06T16:11:53.607Z,41.18
2022-12-06T16:16:55.635Z,41.22
2022-12-06T16:21:58.591Z,41.46
2022-12-06T16:27:00.592Z,41.93
2022-12-06T16:32:02.559Z,41.74
2022-12-06T16:37:08.802Z,41.83
2022-12-06T16:42:10.840Z,42.42
2022-12-06T16:47:13.435Z,41.88
2022-12-06T16:52:16.056Z,41.87
2022-12-06T16:57:19.663Z,41.22
2022-12-06T17:02:27.619Z,41.79
2022-12-06T17:07:29.710Z,41.17
2022-12-06T17:12:31.710Z,41.28
2022-12-06T17:17:33.666Z,41.44
2022-12-06T17:22:36.587Z,41.14
2022-12-06T17:27:39.650Z,41.53
2022-12-06T17:32:41.689Z,41.27
2022-12-06T17:37:43.675Z,41.21
2022-12-06T17:43:00.920Z,41.08
2022-12-06T17:48:02.905Z,41.27
2022-12-06T17:53:05.179Z,41.01
2022-12-06T17:58:07.144Z,41.13
2022-12-06T18:03:09.212Z,41.26
2022-12-06T18:08:11.282Z,41.67
2022-12-06T18:13:13.280Z,41.98
2022-12-06T18:18:16.328Z,41.86
2022-12-06T18:23:18.310Z,41.58
2022-12-06T18:28:20.268Z,42.14
2022-12-06T18:33:26.578Z,41.23
2022-12-06T18:38:33.343Z,42.26
2022-12-06T18:43:36.275Z,42.02
2022-12-06T18:48:41.091Z,41.92
2022-12-06T18:53:43.336Z,41.88
2022-12-06T18:58:45.579Z,41.94
2022-12-06T19:03:48.621Z,42.13
2022-12-06T19:08:52.047Z,42.27
2022-12-06T19:13:57.939Z,42.52
2022-12-06T19:19:01.477Z,42.53
2022-12-06T19:24:04.114Z,42.85
2022-12-06T19:29:06.162Z,42.62
2022-12-06T19:34:15.692Z,43.08
2022-12-06T19:39:19.508Z,42.32
2022-12-06T19:44:21.790Z,42.43
2022-12-06T19:49:25.685Z,43.14
2022-12-06T19:54:30.459Z,42.50
2022-12-06T19:59:35.242Z,42.93
2022-12-06T20:04:40.024Z,42.53
2022-12-06T20:09:42.134Z,42.72
2022-12-06T20:14:46.638Z,42.74
2022-12-06T20:19:51.290Z,42.59
2022-12-06T20:24:53.302Z,42.68
2022-12-06T20:29:55.265Z,43.06
2022-12-06T20:34:57.273Z,42.45
2022-12-06T20:39:59.437Z,43.18
2022-12-06T20:45:01.752Z,43.03
2022-12-06T20:50:05.915Z,42.61
2022-12-06T20:55:08.399Z,42.42
2022-12-06T21:00:11.730Z,42.55
2022-12-06T21:05:13.955Z,42.92
2022-12-06T21:10:16.125Z,42.34
2022-12-06T21:15:18.189Z,42.24
2022-12-06T21:20:20.251Z,42.24
2022-12-06T21:25:22.293Z,41.85
2022-12-06T21:30:24.357Z,42.11
2022-12-06T21:35:26.345Z,41.83
2022-12-06T21:40:28.550Z,42.42
2022-12-06T21:45:30.680Z,41.54
2022-12-06T21:50:32.915Z,41.79
2022-12-06T21:55:34.873Z,42.11
2022-12-06T22:00:37.073Z,42.42
2022-12-06T22:05:40.415Z,41.48
2022-12-06T22:10:42.797Z,42.25
2022-12-06T22:15:44.944Z,42.65
2022-12-06T22:20:59.913Z,41.57
2022-12-06T22:26:08.614Z,42.30
2022-12-06T22:31:14.983Z,42.17
2022-12-06T22:36:18.681Z,41.93
2022-12-06T22:41:21.107Z,41.63
2022-12-06T22:46:24.158Z,42.31
2022-12-06T22:51:29.172Z,41.88
2022-12-06T22:56:33.448Z,41.14
2022-12-06T23:01:35.965Z,42.48
2022-12-06T23:06:38.692Z,41.85
2022-12-06T23:11:40.785Z,42.43
2022-12-06T23:16:45.235Z,42.14
2022-12-06T23:21:47.558Z,41.91
2022-12-06T23:26:54.593Z,42.67
2022-12-06T23:31:59.747Z,42.69
2022-12-06T23:37:01.810Z,41.88
2022-12-06T23:42:04.383Z,42.82
2022-12-06T23:47:06.417Z,42.37
2022-12-06T23:52:08.478Z,42.75
2022-12-06T23:57:11.657Z,42.41
